createdAt,value
2018-08-28T00:01:25.847Z,565.60
2018-08-28T00:03:53.239Z,574.83
2018-08-28T00:06:20.579Z,570.10
2018-08-28T00:08:48.052Z,578.00
2018-08-28T00:11:15.523Z,565.37
2018-08-28T00:13:42.699Z,570.90
2018-08-28T00:16:09.881Z,559.37
2018-08-28T00:18:37.068Z,557.27
2018-08-28T00:21:04.255Z,512.80
2018-08-28T00:23:31.423Z,562.13
2018-08-28T00:25:58.581Z,573.17
2018-08-28T00:28:25.756Z,565.80
2018-08-28T00:30:53.076Z,565.33
2018-08-28T00:33:20.253Z,570.17
2018-08-28T00:35:47.432Z,569.00
2018-08-28T00:38:14.591Z,558.17
2018-08-28T00:40:41.763Z,559.43
2018-08-28T00:43:08.943Z,570.73
2018-08-28T00:45:36.131Z,571.80
2018-08-28T00:48:03.299Z,521.10
2018-08-28T00:50:30.523Z,563.97
2018-08-28T00:52:57.719Z,519.60
2018-08-28T00:55:25.068Z,569.27
2018-08-28T00:57:53.045Z,561.43
2018-08-28T01:00:20.237Z,556.03
2018-08-28T01:02:47.423Z,569.93
2018-08-28T01:05:14.739Z,556.57
2018-08-28T01:07:41.916Z,565.17
2018-08-28T01:10:09.099Z,561.83
2018-08-28T01:12:36.327Z,513.60
2018-08-28T01:15:03.764Z,566.63
2018-08-28T01:17:30.924Z,564.50
2018-08-28T01:19:58.103Z,551.87
2018-08-28T01:22:25.271Z,551.00
2018-08-28T01:24:52.457Z,551.00
2018-08-28T01:27:19.742Z,502.47
2018-08-28T01:29:46.924Z,562.33
2018-08-28T01:32:14.083Z,555.70
2018-08-28T01:34:41.524Z,553.07
2018-08-28T01:37:08.700Z,539.23
2018-08-28T01:39:35.916Z,556.30
2018-08-28T01:42:03.113Z,557.50
2018-08-28T01:44:30.283Z,554.40
2018-08-28T01:46:57.476Z,512.17
2018-08-28T01:49:24.640Z,545.57
2018-08-28T01:51:51.843Z,511.20
2018-08-28T01:54:18.993Z,547.23
2018-08-28T01:56:46.140Z,556.27
2018-08-28T01:59:13.291Z,494.67
2018-08-28T02:01:40.428Z,548.67
2018-08-28T02:04:07.591Z,553.77
2018-08-28T02:06:34.731Z,549.83
2018-08-28T02:09:01.924Z,553.43
2018-08-28T02:11:29.088Z,490.13
2018-08-28T02:13:56.227Z,548.57
2018-08-28T02:16:23.379Z,546.33
2018-08-28T02:18:50.580Z,549.90
2018-08-28T02:21:17.744Z,549.50
2018-08-28T02:23:44.917Z,504.97
2018-08-28T02:26:12.068Z,549.50
2018-08-28T02:28:39.380Z,504.07
2018-08-28T02:31:06.552Z,545.43
2018-08-28T02:33:33.782Z,509.57
2018-08-28T02:36:01.220Z,541.87
2018-08-28T02:38:28.404Z,547.80
2018-08-28T02:40:55.581Z,549.57
2018-08-28T02:43:22.767Z,541.70
2018-08-28T02:45:49.948Z,547.47
2018-08-28T02:48:17.251Z,534.37
2018-08-28T02:50:44.415Z,558.00
2018-08-28T02:53:11.603Z,533.63
2018-08-28T02:55:38.774Z,545.60
2018-08-28T02:58:05.992Z,536.17
2018-08-28T03:00:33.160Z,545.07
2018-08-28T03:03:00.391Z,539.83
2018-08-28T03:05:27.530Z,441.40
2018-08-28T03:07:54.696Z,548.70
2018-08-28T03:10:21.920Z,544.70
2018-08-28T03:12:49.096Z,540.53
2018-08-28T03:15:16.288Z,539.33
2018-08-28T03:17:43.465Z,528.63
2018-08-28T03:20:10.642Z,547.47
2018-08-28T03:22:37.822Z,544.30
2018-08-28T03:25:04.995Z,520.27
2018-08-28T03:27:32.295Z,540.33
2018-08-28T03:29:59.464Z,478.60
2018-08-28T03:32:26.636Z,495.87
2018-08-28T03:34:53.820Z,543.03
2018-08-28T03:37:21.072Z,547.23
2018-08-28T03:39:48.236Z,546.47
2018-08-28T03:42:15.424Z,538.93
2018-08-28T03:44:42.637Z,540.93
2018-08-28T03:47:09.812Z,544.27
2018-08-28T03:49:37.007Z,477.30
2018-08-28T03:52:04.210Z,537.17
2018-08-28T03:54:31.438Z,537.27
2018-08-28T03:56:58.692Z,536.77
2018-08-28T03:59:25.896Z,495.40
2018-08-28T04:01:53.085Z,538.27
2018-08-28T04:04:20.277Z,487.27
2018-08-28T04:06:47.523Z,543.20
2018-08-28T04:09:14.744Z,482.67
2018-08-28T04:11:41.927Z,542.10
2018-08-28T04:14:09.127Z,491.80
2018-08-28T04:16:36.358Z,449.17
2018-08-28T04:19:05.217Z,535.63
2018-08-28T04:21:32.408Z,533.50
2018-08-28T04:23:59.584Z,529.60
2018-08-28T04:26:26.748Z,529.20
2018-08-28T04:28:53.950Z,523.37
2018-08-28T04:31:21.124Z,524.60
2018-08-28T04:33:48.319Z,515.83
2018-08-28T04:36:15.491Z,517.23
2018-08-28T04:38:42.734Z,526.57
2018-08-28T04:41:10.028Z,524.93
2018-08-28T04:43:37.237Z,444.77
2018-08-28T04:46:04.440Z,535.80
2018-08-28T04:48:31.686Z,529.53
2018-08-28T04:50:58.820Z,530.53
2018-08-28T04:53:25.995Z,517.63
2018-08-28T04:55:53.308Z,454.07
2018-08-28T04:58:20.486Z,446.30
2018-08-28T05:00:47.665Z,526.23
2018-08-28T05:03:14.848Z,432.50
2018-08-28T05:05:42.028Z,448.60
2018-08-28T05:08:09.218Z,452.00
2018-08-28T05:10:36.387Z,524.63
2018-08-28T05:13:03.575Z,452.03
2018-08-28T05:15:30.740Z,526.33
2018-08-28T05:17:57.913Z,431.73
2018-08-28T05:20:25.089Z,516.30
2018-08-28T05:22:52.266Z,521.67
2018-08-28T05:25:19.444Z,443.43
2018-08-28T05:27:46.966Z,531.17
2018-08-28T05:30:14.159Z,532.47
2018-08-28T05:32:41.308Z,537.80
2018-08-28T05:35:08.505Z,540.83
2018-08-28T05:37:35.787Z,453.00
2018-08-28T05:40:02.979Z,529.30
2018-08-28T05:42:30.128Z,523.50
2018-08-28T05:44:57.299Z,526.47
2018-08-28T05:47:24.450Z,522.83
2018-08-28T05:49:51.599Z,521.27
2018-08-28T05:52:18.748Z,528.73
2018-08-28T05:54:45.895Z,514.87
2018-08-28T05:57:13.044Z,446.67
2018-08-28T05:59:40.213Z,517.20
2018-08-28T06:02:07.387Z,526.40
2018-08-28T06:04:34.537Z,524.17
2018-08-28T06:07:01.702Z,528.93
2018-08-28T06:09:28.851Z,535.77
2018-08-28T06:11:56.012Z,529.67
2018-08-28T06:14:23.164Z,535.30
2018-08-28T06:16:50.303Z,524.00
2018-08-28T06:19:17.448Z,534.63
2018-08-28T06:21:44.809Z,448.63
2018-08-28T06:24:11.987Z,524.37
2018-08-28T06:26:39.444Z,530.57
2018-08-28T06:29:06.604Z,526.20
2018-08-28T06:31:33.757Z,542.90
2018-08-28T06:34:00.977Z,537.33
2018-08-28T06:36:28.073Z,454.77
2018-08-28T06:38:55.256Z,526.73
2018-08-28T06:41:22.403Z,537.13
2018-08-28T06:43:49.612Z,468.07
2018-08-28T06:46:16.743Z,586.90
2018-08-28T06:48:43.884Z,584.70
2018-08-28T06:51:11.052Z,576.27
2018-08-28T06:53:38.208Z,594.00
2018-08-28T06:56:05.393Z,585.40
2018-08-28T06:58:32.547Z,587.27
2018-08-28T07:00:59.707Z,630.30
2018-08-28T07:03:26.859Z,650.60
2018-08-28T07:05:54.027Z,689.97
2018-08-28T07:08:21.200Z,744.77
2018-08-28T07:10:48.371Z,607.20
2018-08-28T07:13:15.516Z,716.67
2018-08-28T07:15:42.673Z,621.40
2018-08-28T07:18:09.820Z,768.83
2018-08-28T07:20:36.967Z,783.80
2018-08-28T07:23:04.236Z,680.53
2018-08-28T07:25:31.465Z,825.23
2018-08-28T07:27:58.591Z,841.17
2018-08-28T07:30:25.740Z,755.03
2018-08-28T07:32:52.879Z,821.40
2018-08-28T07:35:20.048Z,822.23
2018-08-28T07:37:47.204Z,753.73
2018-08-28T07:40:14.382Z,863.97
2018-08-28T07:42:41.555Z,756.93
2018-08-28T07:45:08.736Z,720.17
2018-08-28T07:47:35.884Z,864.93
2018-08-28T07:50:03.099Z,836.80
2018-08-28T07:52:30.291Z,955.60
2018-08-28T07:54:57.431Z,776.73
2018-08-28T07:57:24.580Z,920.53
2018-08-28T07:59:51.724Z,920.93
2018-08-28T08:02:18.883Z,955.97
2018-08-28T08:04:46.031Z,899.13
2018-08-28T08:07:13.174Z,977.27
2018-08-28T08:09:40.335Z,914.07
2018-08-28T08:12:07.499Z,896.03
2018-08-28T08:14:34.639Z,935.43
2018-08-28T08:17:02.073Z,915.07
2018-08-28T08:19:29.228Z,943.93
2018-08-28T08:21:56.412Z,818.43
2018-08-28T08:24:23.569Z,800.13
2018-08-28T08:26:50.716Z,992.63
2018-08-28T08:29:17.857Z,988.30
2018-08-28T08:31:45.039Z,805.03
2018-08-28T08:34:12.204Z,998.10
2018-08-28T08:36:39.343Z,1000.23
2018-08-28T08:39:07.846Z,983.27
2018-08-28T08:41:35.029Z,1012.10
2018-08-28T08:44:02.290Z,1003.73
2018-08-28T08:46:29.433Z,1003.03
2018-08-28T08:48:56.574Z,1004.70
2018-08-28T08:51:23.727Z,983.63
2018-08-28T08:53:50.897Z,989.80
2018-08-28T08:56:18.042Z,988.73
2018-08-28T08:58:45.191Z,1013.03
2018-08-28T09:01:12.376Z,988.77
2018-08-28T09:03:39.545Z,1025.13
2018-08-28T09:06:06.761Z,1011.87
2018-08-28T09:08:33.914Z,1012.53
2018-08-28T09:11:01.132Z,989.97
2018-08-28T09:13:28.371Z,1049.43
2018-08-28T09:15:55.492Z,1039.13
2018-08-28T09:18:22.640Z,1040.30
2018-08-28T09:20:49.811Z,1016.67
2018-08-28T09:23:16.971Z,1032.87
2018-08-28T09:25:44.112Z,981.57
2018-08-28T09:28:11.263Z,989.70
2018-08-28T09:30:38.409Z,1066.93
2018-08-28T09:33:05.613Z,1052.37
2018-08-28T09:35:32.785Z,1084.40
2018-08-28T09:37:59.952Z,1052.27
2018-08-28T09:40:27.119Z,1023.33
2018-08-28T09:42:54.299Z,1105.17
2018-08-28T09:45:21.478Z,1067.63
2018-08-28T09:47:48.683Z,1059.80
2018-08-28T09:50:15.875Z,1083.87
2018-08-28T09:52:43.052Z,991.67
2018-08-28T09:55:10.289Z,1033.57
2018-08-28T09:57:37.428Z,1000.90
2018-08-28T10:00:05.738Z,1058.87
2018-08-28T10:02:32.936Z,993.03
2018-08-28T10:05:00.123Z,985.47
2018-08-28T10:07:27.297Z,1058.83
2018-08-28T10:09:54.464Z,938.83
2018-08-28T10:12:21.631Z,1008.70
2018-08-28T10:14:48.810Z,1002.80
2018-08-28T10:17:15.999Z,874.83
2018-08-28T10:19:43.228Z,936.30
2018-08-28T10:22:10.411Z,954.53
2018-08-28T10:24:37.589Z,1032.93
2018-08-28T10:27:04.759Z,1023.83
2018-08-28T10:29:31.923Z,947.23
2018-08-28T10:31:59.095Z,1004.10
2018-08-28T10:34:26.269Z,929.77
2018-08-28T10:36:53.411Z,987.90
2018-08-28T10:39:20.584Z,1011.93
2018-08-28T10:41:47.737Z,1036.30
2018-08-28T10:44:14.889Z,1022.30
2018-08-28T10:46:42.142Z,973.50
2018-08-28T10:49:09.196Z,990.43
2018-08-28T10:51:36.375Z,1011.63
2018-08-28T10:54:03.516Z,992.37
2018-08-28T10:56:30.689Z,991.23
2018-08-28T10:58:57.842Z,983.33
2018-08-28T11:01:24.992Z,961.07
2018-08-28T11:03:52.140Z,951.73
2018-08-28T11:06:19.427Z,969.10
2018-08-28T11:08:46.622Z,998.87
2018-08-28T11:11:13.731Z,989.93
2018-08-28T11:13:40.874Z,995.30
2018-08-28T11:16:08.080Z,1008.77
2018-08-28T11:18:35.209Z,986.17
2018-08-28T11:21:02.373Z,994.70
2018-08-28T11:23:29.536Z,983.70
2018-08-28T11:25:56.684Z,1009.57
2018-08-28T11:28:23.824Z,992.53
2018-08-28T11:30:50.983Z,1001.33
2018-08-28T11:33:18.212Z,951.00
2018-08-28T11:35:45.572Z,972.57
2018-08-28T11:38:12.636Z,984.13
2018-08-28T11:40:39.815Z,993.57
2018-08-28T11:43:07.000Z,1052.40
2018-08-28T11:45:34.179Z,1034.73
2018-08-28T11:48:01.364Z,995.73
2018-08-28T11:50:28.548Z,1055.20
2018-08-28T11:52:55.724Z,1017.53
2018-08-28T11:55:22.924Z,971.00
2018-08-28T11:57:50.095Z,985.70
2018-08-28T12:00:17.275Z,1019.30
2018-08-28T12:02:44.457Z,989.47
2018-08-28T12:05:11.819Z,999.87
2018-08-28T12:07:38.870Z,1020.77
2018-08-28T12:10:07.176Z,1026.90
2018-08-28T12:12:34.352Z,1057.13
2018-08-28T12:15:01.582Z,996.57
2018-08-28T12:17:28.748Z,1009.57
2018-08-28T12:19:55.975Z,1004.97
2018-08-28T12:22:23.196Z,1026.10
2018-08-28T12:24:50.372Z,1055.27
2018-08-28T12:27:17.553Z,1057.83
2018-08-28T12:29:44.778Z,1039.17
2018-08-28T12:32:11.924Z,1078.30
2018-08-28T12:34:39.268Z,1040.23
2018-08-28T12:37:06.530Z,1069.83
2018-08-28T12:39:33.678Z,1080.40
2018-08-28T12:42:00.884Z,1119.00
2018-08-28T12:44:28.064Z,1021.70
2018-08-28T12:46:55.255Z,1044.07
2018-08-28T12:49:22.591Z,1050.57
2018-08-28T12:51:49.769Z,1081.40
2018-08-28T12:54:16.951Z,1031.10
2018-08-28T12:56:44.163Z,1006.03
2018-08-28T12:59:11.371Z,1030.43
2018-08-28T13:01:38.599Z,1037.60
2018-08-28T13:04:05.809Z,1063.97
2018-08-28T13:06:32.998Z,1067.50
2018-08-28T13:09:00.191Z,1051.10
2018-08-28T13:11:27.377Z,1072.13
2018-08-28T13:13:54.631Z,1052.43
2018-08-28T13:16:21.824Z,1041.43
2018-08-28T13:18:49.001Z,1062.03
2018-08-28T13:21:16.163Z,1050.77
2018-08-28T13:23:43.348Z,1065.17
2018-08-28T13:26:10.601Z,1075.97
2018-08-28T13:28:37.684Z,1072.90
2018-08-28T13:31:04.892Z,1032.20
2018-08-28T13:33:32.075Z,1050.57
2018-08-28T13:35:59.296Z,1043.93
2018-08-28T13:38:26.608Z,1015.57
2018-08-28T13:40:53.799Z,1013.23
2018-08-28T13:43:20.983Z,1020.23
2018-08-28T13:45:48.152Z,1024.03
2018-08-28T13:48:15.367Z,1041.40
2018-08-28T13:50:42.539Z,1017.10
2018-08-28T13:53:09.713Z,1031.30
2018-08-28T13:55:36.881Z,1053.90
2018-08-28T13:58:04.079Z,1027.37
2018-08-28T14:00:31.265Z,1057.13
2018-08-28T14:02:58.435Z,1037.40
2018-08-28T14:05:25.604Z,1039.73
2018-08-28T14:07:52.775Z,1011.43
2018-08-28T14:10:19.947Z,985.87
2018-08-28T14:12:47.150Z,997.17
2018-08-28T14:15:14.396Z,1017.53
2018-08-28T14:17:41.608Z,963.50
2018-08-28T14:20:08.824Z,1001.40
2018-08-28T14:22:36.132Z,967.33
2018-08-28T14:25:03.242Z,1026.87
2018-08-28T14:27:30.445Z,1052.27
2018-08-28T14:29:57.635Z,1050.43
2018-08-28T14:32:24.836Z,1016.47
2018-08-28T14:34:52.020Z,1019.60
2018-08-28T14:37:19.215Z,1045.23
2018-08-28T14:39:46.391Z,1039.57
2018-08-28T14:42:13.595Z,1017.57
2018-08-28T14:44:40.764Z,1044.17
2018-08-28T14:47:07.939Z,1036.93
2018-08-28T14:49:35.131Z,1044.93
2018-08-28T14:52:02.323Z,1052.43
2018-08-28T14:54:29.807Z,1001.83
2018-08-28T14:56:57.376Z,1011.93
2018-08-28T14:59:24.554Z,1003.30
2018-08-28T15:01:51.730Z,1021.57
2018-08-28T15:04:18.915Z,1034.03
2018-08-28T15:06:46.127Z,1026.67
2018-08-28T15:09:13.286Z,1046.23
2018-08-28T15:11:40.480Z,1010.33
2018-08-28T15:14:07.666Z,995.03
2018-08-28T15:16:35.175Z,974.87
2018-08-28T15:19:02.336Z,1020.80
2018-08-28T15:21:29.553Z,854.43
2018-08-28T15:23:56.762Z,970.33
2018-08-28T15:26:23.940Z,954.60
2018-08-28T15:28:51.118Z,938.93
2018-08-28T15:31:18.309Z,1036.40
2018-08-28T15:33:45.475Z,1014.47
2018-08-28T15:36:12.687Z,1004.50
2018-08-28T15:38:39.896Z,986.50
2018-08-28T15:41:07.024Z,965.83
2018-08-28T15:43:34.272Z,983.50
2018-08-28T15:46:01.697Z,1003.67
2018-08-28T15:48:28.857Z,952.27
2018-08-28T15:50:56.070Z,929.30
2018-08-28T15:53:23.168Z,959.40
2018-08-28T15:55:50.317Z,979.27
2018-08-28T15:58:17.497Z,953.30
2018-08-28T16:00:44.673Z,917.93
2018-08-28T16:03:11.816Z,922.77
2018-08-28T16:05:38.963Z,949.60
2018-08-28T16:08:06.119Z,978.83
2018-08-28T16:10:33.285Z,994.67
2018-08-28T16:13:00.453Z,984.67
2018-08-28T16:15:27.618Z,981.57
2018-08-28T16:17:54.837Z,912.27
2018-08-28T16:20:21.947Z,1010.63
2018-08-28T16:22:52.615Z,976.07
2018-08-28T16:25:19.733Z,966.87
2018-08-28T16:27:46.824Z,862.43
2018-08-28T16:30:13.938Z,851.50
2018-08-28T16:32:41.118Z,901.43
2018-08-28T16:35:08.353Z,1004.27
2018-08-28T16:37:35.434Z,781.63
2018-08-28T16:40:02.570Z,897.87
2018-08-28T16:42:29.678Z,895.07
2018-08-28T16:44:56.785Z,827.70
2018-08-28T16:47:23.902Z,675.07
2018-08-28T16:49:51.086Z,826.23
2018-08-28T16:52:18.238Z,807.07
2018-08-28T16:54:45.385Z,774.30
2018-08-28T16:57:12.497Z,712.50
2018-08-28T16:59:39.597Z,829.03
2018-08-28T17:02:06.749Z,591.17
2018-08-28T17:04:33.873Z,702.10
2018-08-28T17:07:00.990Z,794.63
2018-08-28T17:09:28.101Z,821.67
2018-08-28T17:11:55.221Z,845.20
2018-08-28T17:14:22.354Z,820.23
2018-08-28T17:16:49.477Z,773.07
2018-08-28T17:19:16.660Z,811.33
2018-08-28T17:21:43.730Z,761.50
2018-08-28T17:24:10.878Z,718.37
2018-08-28T17:26:38.022Z,764.07
2018-08-28T17:29:05.385Z,599.60
2018-08-28T17:31:32.501Z,604.73
2018-08-28T17:33:59.650Z,568.57
2018-08-28T17:36:26.781Z,763.23
2018-08-28T17:38:53.889Z,778.47
2018-08-28T17:41:21.072Z,610.07
2018-08-28T17:43:48.273Z,751.77
2018-08-28T17:46:15.410Z,819.20
2018-08-28T17:48:42.584Z,685.57
2018-08-28T17:51:09.638Z,653.73
2018-08-28T17:53:36.779Z,723.53
2018-08-28T17:56:03.898Z,695.57
2018-08-28T17:58:31.042Z,249.27
2018-08-28T18:00:58.180Z,239.70
2018-08-28T18:03:25.318Z,716.13
2018-08-28T18:05:52.446Z,644.27
2018-08-28T18:08:19.595Z,470.90
2018-08-28T18:10:46.786Z,457.70
2018-08-28T18:13:13.969Z,602.70
2018-08-28T18:15:41.105Z,574.27
2018-08-28T18:18:08.254Z,559.87
2018-08-28T18:20:35.365Z,210.00
2018-08-28T18:23:02.489Z,467.77
2018-08-28T18:25:29.609Z,208.87
2018-08-28T18:27:56.929Z,216.67
2018-08-28T18:30:24.131Z,215.10
2018-08-28T18:32:51.262Z,582.10
2018-08-28T18:35:18.662Z,588.60
2018-08-28T18:37:45.774Z,600.67
2018-08-28T18:40:12.958Z,594.70
2018-08-28T18:42:40.093Z,602.03
2018-08-28T18:45:07.445Z,274.97
2018-08-28T18:47:34.554Z,475.57
2018-08-28T18:50:01.915Z,594.63
2018-08-28T18:52:29.106Z,546.43
2018-08-28T18:54:56.230Z,598.60
2018-08-28T18:57:23.397Z,535.17
2018-08-28T18:59:50.522Z,532.37
2018-08-28T19:02:17.694Z,594.20
2018-08-28T19:04:44.821Z,649.43
2018-08-28T19:07:12.110Z,610.13
2018-08-28T19:09:39.238Z,257.47
2018-08-28T19:12:06.363Z,271.33
2018-08-28T19:14:33.472Z,468.40
2018-08-28T19:17:00.953Z,608.43
2018-08-28T19:19:28.099Z,496.90
2018-08-28T19:21:55.234Z,584.50
2018-08-28T19:24:22.353Z,529.00
2018-08-28T19:26:49.470Z,585.17
2018-08-28T19:29:16.594Z,584.60
2018-08-28T19:31:43.764Z,581.53
2018-08-28T19:34:10.872Z,578.77
2018-08-28T19:36:38.005Z,580.70
2018-08-28T19:39:05.178Z,531.20
2018-08-28T19:41:32.317Z,580.27
2018-08-28T19:43:59.462Z,570.50
2018-08-28T19:46:26.561Z,578.30
2018-08-28T19:48:53.719Z,576.93
2018-08-28T19:51:20.854Z,588.10
2018-08-28T19:53:48.032Z,530.10
2018-08-28T19:56:15.093Z,580.43
2018-08-28T19:58:42.201Z,582.63
2018-08-28T20:01:09.318Z,490.60
2018-08-28T20:03:36.441Z,588.60
2018-08-28T20:06:03.602Z,535.90
2018-08-28T20:08:30.737Z,591.63
2018-08-28T20:10:57.865Z,595.63
2018-08-28T20:13:24.974Z,588.70
2018-08-28T20:15:52.105Z,601.10
2018-08-28T20:18:19.227Z,592.63
2018-08-28T20:20:46.419Z,542.00
2018-08-28T20:23:13.488Z,590.47
2018-08-28T20:25:40.617Z,570.17
2018-08-28T20:28:07.729Z,534.57
2018-08-28T20:30:34.840Z,531.30
2018-08-28T20:33:01.966Z,589.63
2018-08-28T20:35:30.903Z,603.03
2018-08-28T20:37:58.478Z,531.43
2018-08-28T20:40:26.405Z,588.03
2018-08-28T20:42:53.633Z,579.77
2018-08-28T20:45:20.789Z,492.43
2018-08-28T20:47:47.969Z,581.50
2018-08-28T20:50:15.102Z,573.03
2018-08-28T20:52:42.225Z,576.03
2018-08-28T20:55:09.377Z,486.30
2018-08-28T20:57:36.517Z,570.10
2018-08-28T21:00:04.577Z,488.77
2018-08-28T21:02:31.682Z,579.47
2018-08-28T21:04:59.809Z,527.27
2018-08-28T21:07:26.957Z,488.80
2018-08-28T21:09:54.090Z,579.90
2018-08-28T21:12:21.277Z,579.63
2018-08-28T21:14:48.610Z,581.57
2018-08-28T21:17:15.745Z,530.13
2018-08-28T21:19:42.857Z,577.60
2018-08-28T21:22:10.158Z,574.27
2018-08-28T21:24:37.283Z,569.93
2018-08-28T21:27:04.470Z,557.67
2018-08-28T21:29:31.661Z,577.67
2018-08-28T21:31:58.826Z,566.90
2018-08-28T21:34:25.900Z,560.50
2018-08-28T21:36:52.998Z,511.83
2018-08-28T21:39:20.390Z,566.10
2018-08-28T21:41:47.489Z,481.00
2018-08-28T21:44:14.574Z,517.03
2018-08-28T21:46:41.906Z,569.03
2018-08-28T21:49:09.129Z,571.70
2018-08-28T21:51:36.299Z,565.27
2018-08-28T21:54:03.481Z,566.47
2018-08-28T21:56:30.582Z,575.50
2018-08-28T21:58:57.791Z,485.30
2018-08-28T22:01:24.905Z,571.20
2018-08-28T22:03:52.030Z,483.77
2018-08-28T22:06:24.853Z,569.87
2018-08-28T22:08:51.946Z,551.23
2018-08-28T22:11:19.041Z,500.67
2018-08-28T22:13:46.138Z,545.87
2018-08-28T22:16:13.228Z,551.67
2018-08-28T22:18:40.325Z,543.77
2018-08-28T22:21:07.442Z,566.53
2018-08-28T22:23:34.637Z,553.77
2018-08-28T22:26:01.793Z,504.10
2018-08-28T22:28:28.897Z,556.73
2018-08-28T22:30:56.005Z,556.50
2018-08-28T22:33:23.118Z,564.43
2018-08-28T22:35:50.229Z,497.73
2018-08-28T22:38:17.369Z,544.67
2018-08-28T22:40:44.462Z,499.27
2018-08-28T22:43:11.661Z,554.73
2018-08-28T22:45:38.745Z,513.67
2018-08-28T22:48:06.144Z,574.13
2018-08-28T22:50:33.409Z,570.13
2018-08-28T22:53:00.510Z,521.33
2018-08-28T22:55:27.590Z,527.40
2018-08-28T22:57:54.693Z,575.10
2018-08-28T23:00:22.846Z,570.33
2018-08-28T23:02:51.322Z,578.77
2018-08-28T23:05:19.081Z,567.43
2018-08-28T23:07:46.190Z,589.90
2018-08-28T23:10:13.322Z,582.03
2018-08-28T23:12:40.421Z,576.13
2018-08-28T23:15:07.517Z,577.13
2018-08-28T23:17:34.613Z,578.90
2018-08-28T23:20:01.718Z,572.83
2018-08-28T23:22:28.817Z,547.60
2018-08-28T23:24:55.912Z,565.53
2018-08-28T23:27:22.993Z,561.20
2018-08-28T23:29:50.069Z,482.47
2018-08-28T23:32:17.173Z,560.57
2018-08-28T23:34:44.269Z,557.50
2018-08-28T23:37:11.606Z,557.93
2018-08-28T23:39:38.725Z,557.10
2018-08-28T23:42:05.617Z,558.60
2018-08-28T23:44:32.733Z,548.80
2018-08-28T23:46:59.833Z,554.30
2018-08-28T23:49:26.932Z,469.70
2018-08-28T23:51:54.017Z,550.47
2018-08-28T23:54:21.113Z,503.47
2018-08-28T23:56:48.205Z,553.70
2018-08-28T23:59:15.313Z,549.47
